This is the latest recevied weather packets stored in our database for station/object KB0BS-13. If no packets are shown the sender has not sent any weather packets the latest 10 day(s).
| Time | Temp. | Humidity | Pressure | Rain* | Wind** | Luminosity | Snow |
|---|---|---|---|---|---|---|---|
| 1777728797 | 2.78° C | 79% | 1018.3 hPa | 0 mm | - | 380 W/m² | - |
| 1777728494 | 2.78° C | 80% | 1018.2 hPa | 0 mm | - | 367 W/m² | - |
| 1777728192 | 2.22° C | 82% | 1018.2 hPa | 0 mm | - | 353 W/m² | - |
| 1777727889 | 2.78° C | 82% | 1018.2 hPa | 0 mm | - | 340 W/m² | - |
| 1777727585 | 2.22° C | 84% | 1018.2 hPa | 0 mm | - | 326 W/m² | - |
| 1777727283 | 1.67° C | 84% | 1018.1 hPa | 0 mm | - | 312 W/m² | - |
| 1777726980 | 1.67° C | 84% | 1018.1 hPa | 0 mm | - | 299 W/m² | - |
| 1777726676 | 1.67° C | 86% | 1018.4 hPa | 0 mm | - | 283 W/m² | - |
| 1777726374 | 1.11° C | 88% | 1018.1 hPa | 0 mm | - | 273 W/m² | - |
| 1777726070 | 1.11° C | 89% | 1018.3 hPa | 0 mm | - | 252 W/m² | - |
| 1777725767 | 0.56° C | 89% | 1018.2 hPa | 0 mm | - | 247 W/m² | - |
| 1777725466 | 0.56° C | 89% | 1018.3 hPa | 0 mm | - | 233 W/m² | - |
| 1777725163 | 0.56° C | 89% | 1018.3 hPa | 0 mm | - | 216 W/m² | - |
| 1777724859 | 0° C | 90% | 1018.2 hPa | 0 mm | - | 202 W/m² | - |
| 1777724555 | 0° C | 90% | 1018.1 hPa | 0 mm | - | 192 W/m² | - |
| 1777724254 | 0° C | 89% | 1018.1 hPa | 0 mm | - | 179 W/m² | - |
| 1777723951 | -0.56° C | 90% | 1018.2 hPa | 0 mm | - | 163 W/m² | - |
| 1777723647 | -0.56° C | 91% | 1018.5 hPa | 0 mm | - | 149 W/m² | - |
| 1777723344 | -0.56° C | 91% | 1018.4 hPa | 0 mm | - | 136 W/m² | - |
| 1777723042 | -1.11° C | 91% | 1018.3 hPa | 0 mm | - | 125 W/m² | - |
| 1777722739 | -1.11° C | 92% | 1018.2 hPa | 0 mm | - | 111 W/m² | - |
| 1777722435 | -1.11° C | 92% | 1018.3 hPa | 0 mm | - | 101 W/m² | - |
| 1777722132 | -1.11° C | 91% | 1018.3 hPa | 0 mm | - | 89 W/m² | - |
| 1777721829 | -1.11° C | 92% | 1018.4 hPa | 0 mm | - | 78 W/m² | - |
| 1777721527 | -1.67° C | 92% | 1018.2 hPa | 0 mm | - | 70 W/m² | - |
* Rain latest hour (hover to see other rain measurements)
** Current wind speed in m/s (hover to see current wind gust speed)